sensor_id;sensor_type;location;lat;lon;timestamp;P1;durP1;ratioP1;P2;durP2;ratioP2
35444;SDS011;21562;49.476;6.086;2022-09-01T00:00:35;14.55;;;6.82;;
35444;SDS011;21562;49.476;6.086;2022-09-01T00:03:02;9.70;;;5.78;;
35444;SDS011;21562;49.476;6.086;2022-09-01T00:05:28;9.95;;;5.57;;
35444;SDS011;21562;49.476;6.086;2022-09-01T00:07:57;8.63;;;5.13;;
35444;SDS011;21562;49.476;6.086;2022-09-01T00:10:23;7.97;;;5.85;;
35444;SDS011;21562;49.476;6.086;2022-09-01T00:12:49;11.18;;;5.38;;
35444;SDS011;21562;49.476;6.086;2022-09-01T00:15:14;9.88;;;5.43;;
35444;SDS011;21562;49.476;6.086;2022-09-01T00:17:41;11.70;;;5.45;;
35444;SDS011;21562;49.476;6.086;2022-09-01T00:20:07;10.10;;;4.90;;
35444;SDS011;21562;49.476;6.086;2022-09-01T00:22:33;7.80;;;5.65;;
35444;SDS011;21562;49.476;6.086;2022-09-01T00:24:59;10.75;;;6.55;;
35444;SDS011;21562;49.476;6.086;2022-09-01T00:27:25;14.73;;;6.63;;
35444;SDS011;21562;49.476;6.086;2022-09-01T00:29:51;10.88;;;6.22;;
35444;SDS011;21562;49.476;6.086;2022-09-01T00:32:17;9.38;;;6.78;;
35444;SDS011;21562;49.476;6.086;2022-09-01T00:34:43;11.25;;;6.13;;
35444;SDS011;21562;49.476;6.086;2022-09-01T00:37:09;9.40;;;6.05;;
35444;SDS011;21562;49.476;6.086;2022-09-01T00:39:35;9.68;;;6.13;;
35444;SDS011;21562;49.476;6.086;2022-09-01T00:42:00;8.85;;;5.93;;
35444;SDS011;21562;49.476;6.086;2022-09-01T00:44:26;12.90;;;5.95;;
35444;SDS011;21562;49.476;6.086;2022-09-01T00:46:53;10.30;;;6.13;;
35444;SDS011;21562;49.476;6.086;2022-09-01T00:49:30;13.65;;;5.72;;
35444;SDS011;21562;49.476;6.086;2022-09-01T00:52:14;8.75;;;6.10;;
35444;SDS011;21562;49.476;6.086;2022-09-01T00:54:43;8.57;;;6.13;;
35444;SDS011;21562;49.476;6.086;2022-09-01T00:57:11;13.80;;;6.63;;
35444;SDS011;21562;49.476;6.086;2022-09-01T00:59:38;11.45;;;6.50;;
35444;SDS011;21562;49.476;6.086;2022-09-01T01:02:29;13.27;;;6.93;;
35444;SDS011;21562;49.476;6.086;2022-09-01T01:04:54;13.13;;;7.13;;
35444;SDS011;21562;49.476;6.086;2022-09-01T01:07:23;15.23;;;6.88;;
35444;SDS011;21562;49.476;6.086;2022-09-01T01:09:51;10.65;;;6.38;;
35444;SDS011;21562;49.476;6.086;2022-09-01T01:12:17;12.43;;;6.68;;
35444;SDS011;21562;49.476;6.086;2022-09-01T01:14:45;9.38;;;5.95;;
35444;SDS011;21562;49.476;6.086;2022-09-01T01:17:14;10.32;;;6.35;;
35444;SDS011;21562;49.476;6.086;2022-09-01T01:25:17;11.13;;;7.30;;
35444;SDS011;21562;49.476;6.086;2022-09-01T01:27:46;11.80;;;6.20;;
35444;SDS011;21562;49.476;6.086;2022-09-01T01:30:12;8.73;;;6.03;;
35444;SDS011;21562;49.476;6.086;2022-09-01T01:32:39;13.80;;;6.35;;
35444;SDS011;21562;49.476;6.086;2022-09-01T01:35:10;9.20;;;6.22;;
35444;SDS011;21562;49.476;6.086;2022-09-01T01:37:39;8.02;;;5.78;;
35444;SDS011;21562;49.476;6.086;2022-09-01T01:40:10;12.73;;;6.85;;
35444;SDS011;21562;49.476;6.086;2022-09-01T01:42:41;10.52;;;6.10;;
35444;SDS011;21562;49.476;6.086;2022-09-01T01:45:11;10.60;;;6.13;;
35444;SDS011;21562;49.476;6.086;2022-09-01T01:47:41;15.07;;;6.82;;
35444;SDS011;21562;49.476;6.086;2022-09-01T01:50:12;10.55;;;6.43;;
35444;SDS011;21562;49.476;6.086;2022-09-01T01:52:38;7.55;;;6.55;;
35444;SDS011;21562;49.476;6.086;2022-09-01T01:55:04;9.90;;;6.57;;
35444;SDS011;21562;49.476;6.086;2022-09-01T01:57:35;7.05;;;5.93;;
35444;SDS011;21562;49.476;6.086;2022-09-01T02:00:01;8.80;;;6.35;;
35444;SDS011;21562;49.476;6.086;2022-09-01T02:02:28;10.25;;;6.10;;
35444;SDS011;21562;49.476;6.086;2022-09-01T02:04:53;9.15;;;5.97;;
35444;SDS011;21562;49.476;6.086;2022-09-01T02:07:19;11.25;;;5.93;;
35444;SDS011;21562;49.476;6.086;2022-09-01T02:09:45;11.70;;;6.28;;
35444;SDS011;21562;49.476;6.086;2022-09-01T02:12:12;9.73;;;5.95;;
35444;SDS011;21562;49.476;6.086;2022-09-01T02:14:38;10.90;;;6.05;;
35444;SDS011;21562;49.476;6.086;2022-09-01T02:17:03;16.88;;;7.60;;
35444;SDS011;21562;49.476;6.086;2022-09-01T02:19:31;12.80;;;6.88;;
35444;SDS011;21562;49.476;6.086;2022-09-01T02:22:02;12.20;;;7.18;;
35444;SDS011;21562;49.476;6.086;2022-09-01T02:24:28;9.18;;;5.78;;
35444;SDS011;21562;49.476;6.086;2022-09-01T02:26:55;11.98;;;7.00;;
35444;SDS011;21562;49.476;6.086;2022-09-01T02:29:24;9.18;;;6.57;;
35444;SDS011;21562;49.476;6.086;2022-09-01T02:31:53;9.52;;;6.60;;
35444;SDS011;21562;49.476;6.086;2022-09-01T02:34:20;12.77;;;7.07;;
35444;SDS011;21562;49.476;6.086;2022-09-01T02:36:49;9.70;;;7.18;;
35444;SDS011;21562;49.476;6.086;2022-09-01T02:39:18;10.77;;;6.65;;
35444;SDS011;21562;49.476;6.086;2022-09-01T02:41:52;9.95;;;6.60;;
35444;SDS011;21562;49.476;6.086;2022-09-01T02:44:18;13.52;;;6.50;;
35444;SDS011;21562;49.476;6.086;2022-09-01T02:46:46;11.48;;;6.88;;
35444;SDS011;21562;49.476;6.086;2022-09-01T02:49:20;12.30;;;6.70;;
35444;SDS011;21562;49.476;6.086;2022-09-01T02:51:50;7.82;;;6.28;;
35444;SDS011;21562;49.476;6.086;2022-09-01T02:54:18;7.10;;;6.20;;
35444;SDS011;21562;49.476;6.086;2022-09-01T02:56:47;11.20;;;6.35;;
35444;SDS011;21562;49.476;6.086;2022-09-01T02:59:17;8.88;;;6.78;;
35444;SDS011;21562;49.476;6.086;2022-09-01T03:01:45;9.65;;;6.47;;
35444;SDS011;21562;49.476;6.086;2022-09-01T03:04:12;10.18;;;6.35;;
35444;SDS011;21562;49.476;6.086;2022-09-01T03:06:39;10.88;;;6.10;;
35444;SDS011;21562;49.476;6.086;2022-09-01T03:09:06;8.80;;;6.65;;
35444;SDS011;21562;49.476;6.086;2022-09-01T03:11:35;11.35;;;6.18;;
35444;SDS011;21562;49.476;6.086;2022-09-01T03:14:02;10.52;;;6.75;;
35444;SDS011;21562;49.476;6.086;2022-09-01T03:16:29;8.52;;;5.93;;
35444;SDS011;21562;49.476;6.086;2022-09-01T03:18:55;9.68;;;5.85;;
35444;SDS011;21562;49.476;6.086;2022-09-01T03:21:21;10.80;;;6.50;;
35444;SDS011;21562;49.476;6.086;2022-09-01T03:23:48;10.77;;;6.43;;
35444;SDS011;21562;49.476;6.086;2022-09-01T03:26:16;10.27;;;6.60;;
35444;SDS011;21562;49.476;6.086;2022-09-01T03:28:46;7.55;;;6.03;;
35444;SDS011;21562;49.476;6.086;2022-09-01T03:31:12;9.40;;;5.97;;
35444;SDS011;21562;49.476;6.086;2022-09-01T03:33:38;7.85;;;6.15;;
35444;SDS011;21562;49.476;6.086;2022-09-01T03:36:04;10.50;;;7.13;;
35444;SDS011;21562;49.476;6.086;2022-09-01T03:38:30;10.63;;;6.22;;
35444;SDS011;21562;49.476;6.086;2022-09-01T03:40:59;11.48;;;6.25;;
35444;SDS011;21562;49.476;6.086;2022-09-01T03:43:27;10.43;;;6.40;;
35444;SDS011;21562;49.476;6.086;2022-09-01T03:45:54;8.45;;;6.50;;
35444;SDS011;21562;49.476;6.086;2022-09-01T03:48:23;12.57;;;6.78;;
35444;SDS011;21562;49.476;6.086;2022-09-01T03:50:52;9.80;;;6.60;;
35444;SDS011;21562;49.476;6.086;2022-09-01T03:53:19;9.55;;;5.68;;
35444;SDS011;21562;49.476;6.086;2022-09-01T03:55:46;10.70;;;6.65;;
35444;SDS011;21562;49.476;6.086;2022-09-01T03:58:14;7.68;;;6.00;;
35444;SDS011;21562;49.476;6.086;2022-09-01T04:00:44;8.35;;;5.88;;
35444;SDS011;21562;49.476;6.086;2022-09-01T04:03:24;9.32;;;6.53;;
35444;SDS011;21562;49.476;6.086;2022-09-01T04:05:51;9.88;;;5.60;;
35444;SDS011;21562;49.476;6.086;2022-09-01T04:08:18;9.63;;;6.40;;
35444;SDS011;21562;49.476;6.086;2022-09-01T04:10:53;8.52;;;6.38;;
35444;SDS011;21562;49.476;6.086;2022-09-01T04:13:24;7.53;;;6.03;;
35444;SDS011;21562;49.476;6.086;2022-09-01T04:15:55;7.20;;;6.10;;
35444;SDS011;21562;49.476;6.086;2022-09-01T04:18:21;9.27;;;6.38;;
35444;SDS011;21562;49.476;6.086;2022-09-01T04:20:48;9.93;;;6.93;;
35444;SDS011;21562;49.476;6.086;2022-09-01T04:23:19;12.07;;;6.93;;
35444;SDS011;21562;49.476;6.086;2022-09-01T04:28:35;9.98;;;6.13;;
35444;SDS011;21562;49.476;6.086;2022-09-01T04:31:05;7.22;;;5.90;;
35444;SDS011;21562;49.476;6.086;2022-09-01T04:33:34;9.05;;;5.93;;
35444;SDS011;21562;49.476;6.086;2022-09-01T04:36:04;9.60;;;6.13;;
35444;SDS011;21562;49.476;6.086;2022-09-01T04:38:31;10.05;;;6.57;;
35444;SDS011;21562;49.476;6.086;2022-09-01T04:41:02;11.88;;;5.63;;
35444;SDS011;21562;49.476;6.086;2022-09-01T04:43:34;11.25;;;5.63;;
35444;SDS011;21562;49.476;6.086;2022-09-01T04:46:01;9.85;;;6.63;;
35444;SDS011;21562;49.476;6.086;2022-09-01T04:48:27;11.32;;;6.00;;
35444;SDS011;21562;49.476;6.086;2022-09-01T04:50:53;8.07;;;6.40;;
35444;SDS011;21562;49.476;6.086;2022-09-01T04:53:20;11.27;;;6.93;;
35444;SDS011;21562;49.476;6.086;2022-09-01T04:55:48;8.05;;;6.20;;
35444;SDS011;21562;49.476;6.086;2022-09-01T04:58:16;7.65;;;6.22;;
35444;SDS011;21562;49.476;6.086;2022-09-01T05:00:46;8.55;;;5.68;;
35444;SDS011;21562;49.476;6.086;2022-09-01T05:03:16;10.40;;;5.93;;
35444;SDS011;21562;49.476;6.086;2022-09-01T05:05:45;10.32;;;6.32;;
35444;SDS011;21562;49.476;6.086;2022-09-01T05:08:12;10.90;;;5.97;;
35444;SDS011;21562;49.476;6.086;2022-09-01T05:10:43;9.52;;;5.90;;
35444;SDS011;21562;49.476;6.086;2022-09-01T05:13:11;9.88;;;6.40;;
35444;SDS011;21562;49.476;6.086;2022-09-01T05:15:42;10.95;;;5.93;;
35444;SDS011;21562;49.476;6.086;2022-09-01T05:18:15;8.32;;;6.50;;
35444;SDS011;21562;49.476;6.086;2022-09-01T05:20:49;7.80;;;5.75;;
35444;SDS011;21562;49.476;6.086;2022-09-01T05:23:16;8.70;;;6.15;;
35444;SDS011;21562;49.476;6.086;2022-09-01T05:25:44;8.13;;;5.97;;
35444;SDS011;21562;49.476;6.086;2022-09-01T05:28:15;13.48;;;7.45;;
35444;SDS011;21562;49.476;6.086;2022-09-01T05:30:43;11.43;;;7.13;;
35444;SDS011;21562;49.476;6.086;2022-09-01T05:33:10;13.05;;;6.47;;
35444;SDS011;21562;49.476;6.086;2022-09-01T05:35:40;8.95;;;5.93;;
35444;SDS011;21562;49.476;6.086;2022-09-01T05:38:09;8.75;;;6.38;;
35444;SDS011;21562;49.476;6.086;2022-09-01T05:40:39;6.97;;;5.53;;
35444;SDS011;21562;49.476;6.086;2022-09-01T05:43:06;15.50;;;7.38;;
35444;SDS011;21562;49.476;6.086;2022-09-01T05:45:35;8.88;;;6.55;;
35444;SDS011;21562;49.476;6.086;2022-09-01T05:48:01;11.35;;;6.93;;
35444;SDS011;21562;49.476;6.086;2022-09-01T05:50:27;10.23;;;5.82;;
35444;SDS011;21562;49.476;6.086;2022-09-01T05:52:53;13.23;;;6.88;;
35444;SDS011;21562;49.476;6.086;2022-09-01T05:55:19;14.52;;;7.10;;
35444;SDS011;21562;49.476;6.086;2022-09-01T05:57:46;9.18;;;6.40;;
35444;SDS011;21562;49.476;6.086;2022-09-01T06:00:13;8.57;;;6.50;;
35444;SDS011;21562;49.476;6.086;2022-09-01T06:02:41;21.85;;;7.63;;
35444;SDS011;21562;49.476;6.086;2022-09-01T06:05:07;19.00;;;7.45;;
35444;SDS011;21562;49.476;6.086;2022-09-01T06:07:35;11.38;;;7.05;;
35444;SDS011;21562;49.476;6.086;2022-09-01T06:10:02;8.88;;;6.78;;
35444;SDS011;21562;49.476;6.086;2022-09-01T06:12:28;8.65;;;6.35;;
35444;SDS011;21562;49.476;6.086;2022-09-01T06:14:55;12.95;;;6.90;;
35444;SDS011;21562;49.476;6.086;2022-09-01T06:17:22;14.70;;;8.80;;
35444;SDS011;21562;49.476;6.086;2022-09-01T06:19:49;10.52;;;7.53;;
35444;SDS011;21562;49.476;6.086;2022-09-01T06:22:17;8.45;;;5.75;;
35444;SDS011;21562;49.476;6.086;2022-09-01T06:24:44;11.18;;;6.22;;
35444;SDS011;21562;49.476;6.086;2022-09-01T06:27:09;11.18;;;5.45;;
35444;SDS011;21562;49.476;6.086;2022-09-01T06:29:36;11.85;;;6.53;;
35444;SDS011;21562;49.476;6.086;2022-09-01T06:32:06;7.97;;;5.32;;
35444;SDS011;21562;49.476;6.086;2022-09-01T06:34:35;9.70;;;6.00;;
35444;SDS011;21562;49.476;6.086;2022-09-01T06:37:03;9.05;;;5.30;;
35444;SDS011;21562;49.476;6.086;2022-09-01T06:39:29;8.55;;;5.40;;
35444;SDS011;21562;49.476;6.086;2022-09-01T06:41:55;9.25;;;6.18;;
35444;SDS011;21562;49.476;6.086;2022-09-01T06:44:23;8.00;;;6.10;;
35444;SDS011;21562;49.476;6.086;2022-09-01T06:46:52;11.77;;;5.40;;
35444;SDS011;21562;49.476;6.086;2022-09-01T06:49:21;13.48;;;6.07;;
35444;SDS011;21562;49.476;6.086;2022-09-01T06:51:57;14.88;;;6.10;;
35444;SDS011;21562;49.476;6.086;2022-09-01T06:54:27;9.32;;;4.82;;
35444;SDS011;21562;49.476;6.086;2022-09-01T06:56:55;12.48;;;5.88;;
35444;SDS011;21562;49.476;6.086;2022-09-01T06:59:22;13.70;;;5.88;;
35444;SDS011;21562;49.476;6.086;2022-09-01T07:01:51;9.05;;;6.15;;
35444;SDS011;21562;49.476;6.086;2022-09-01T07:04:18;7.60;;;5.18;;
35444;SDS011;21562;49.476;6.086;2022-09-01T07:06:45;10.65;;;5.20;;
35444;SDS011;21562;49.476;6.086;2022-09-01T07:09:16;10.07;;;5.07;;
35444;SDS011;21562;49.476;6.086;2022-09-01T07:11:43;11.30;;;5.35;;
35444;SDS011;21562;49.476;6.086;2022-09-01T07:14:09;7.78;;;5.05;;
35444;SDS011;21562;49.476;6.086;2022-09-01T07:16:36;17.15;;;5.63;;
35444;SDS011;21562;49.476;6.086;2022-09-01T07:19:05;9.23;;;5.85;;
35444;SDS011;21562;49.476;6.086;2022-09-01T07:21:39;12.77;;;5.00;;
35444;SDS011;21562;49.476;6.086;2022-09-01T07:24:05;9.77;;;4.65;;
35444;SDS011;21562;49.476;6.086;2022-09-01T07:26:32;6.90;;;3.85;;
35444;SDS011;21562;49.476;6.086;2022-09-01T07:29:00;8.93;;;4.50;;
35444;SDS011;21562;49.476;6.086;2022-09-01T07:31:32;7.65;;;4.32;;
35444;SDS011;21562;49.476;6.086;2022-09-01T07:34:03;11.57;;;5.07;;
35444;SDS011;21562;49.476;6.086;2022-09-01T07:36:38;5.97;;;4.35;;
35444;SDS011;21562;49.476;6.086;2022-09-01T07:39:05;6.47;;;4.07;;
35444;SDS011;21562;49.476;6.086;2022-09-01T07:41:31;10.93;;;4.82;;
35444;SDS011;21562;49.476;6.086;2022-09-01T07:43:59;6.28;;;4.05;;
35444;SDS011;21562;49.476;6.086;2022-09-01T07:46:26;5.95;;;3.80;;
35444;SDS011;21562;49.476;6.086;2022-09-01T07:48:55;6.07;;;4.50;;
35444;SDS011;21562;49.476;6.086;2022-09-01T07:51:22;4.30;;;3.58;;
35444;SDS011;21562;49.476;6.086;2022-09-01T07:53:49;12.20;;;4.75;;
35444;SDS011;21562;49.476;6.086;2022-09-01T07:56:15;6.78;;;4.53;;
35444;SDS011;21562;49.476;6.086;2022-09-01T07:58:42;6.70;;;3.72;;
35444;SDS011;21562;49.476;6.086;2022-09-01T08:01:16;7.78;;;4.13;;
35444;SDS011;21562;49.476;6.086;2022-09-01T08:03:44;7.72;;;4.68;;
35444;SDS011;21562;49.476;6.086;2022-09-01T08:06:12;6.13;;;4.53;;
35444;SDS011;21562;49.476;6.086;2022-09-01T08:08:43;6.70;;;4.45;;
35444;SDS011;21562;49.476;6.086;2022-09-01T08:11:14;6.05;;;4.28;;
35444;SDS011;21562;49.476;6.086;2022-09-01T08:13:43;4.97;;;3.97;;
35444;SDS011;21562;49.476;6.086;2022-09-01T08:16:09;6.90;;;3.88;;
35444;SDS011;21562;49.476;6.086;2022-09-01T08:18:36;6.95;;;3.95;;
35444;SDS011;21562;49.476;6.086;2022-09-01T08:21:08;9.55;;;4.18;;
35444;SDS011;21562;49.476;6.086;2022-09-01T08:23:36;6.90;;;3.78;;
35444;SDS011;21562;49.476;6.086;2022-09-01T08:26:13;7.50;;;3.92;;
35444;SDS011;21562;49.476;6.086;2022-09-01T08:28:40;9.07;;;4.95;;
35444;SDS011;21562;49.476;6.086;2022-09-01T08:31:07;7.57;;;4.00;;
35444;SDS011;21562;49.476;6.086;2022-09-01T08:33:38;6.13;;;4.22;;
35444;SDS011;21562;49.476;6.086;2022-09-01T08:36:06;7.03;;;4.50;;
35444;SDS011;21562;49.476;6.086;2022-09-01T08:38:33;7.63;;;4.88;;
35444;SDS011;21562;49.476;6.086;2022-09-01T08:40:59;6.88;;;4.25;;
35444;SDS011;21562;49.476;6.086;2022-09-01T08:43:33;5.68;;;4.43;;
35444;SDS011;21562;49.476;6.086;2022-09-01T08:46:12;10.52;;;3.97;;
35444;SDS011;21562;49.476;6.086;2022-09-01T08:48:51;6.78;;;4.47;;
35444;SDS011;21562;49.476;6.086;2022-09-01T08:56:28;7.35;;;3.70;;
35444;SDS011;21562;49.476;6.086;2022-09-01T08:58:53;6.50;;;4.45;;
35444;SDS011;21562;49.476;6.086;2022-09-01T09:01:37;9.60;;;4.85;;
35444;SDS011;21562;49.476;6.086;2022-09-01T09:10:10;5.18;;;3.80;;
35444;SDS011;21562;49.476;6.086;2022-09-01T09:13:34;8.18;;;4.70;;
35444;SDS011;21562;49.476;6.086;2022-09-01T09:15:53;4.35;;;3.47;;
35444;SDS011;21562;49.476;6.086;2022-09-01T09:18:28;6.22;;;3.83;;
35444;SDS011;21562;49.476;6.086;2022-09-01T09:21:05;8.23;;;4.18;;
35444;SDS011;21562;49.476;6.086;2022-09-01T09:23:38;6.40;;;3.85;;
35444;SDS011;21562;49.476;6.086;2022-09-01T09:26:07;7.43;;;3.83;;
35444;SDS011;21562;49.476;6.086;2022-09-01T09:28:33;7.30;;;3.90;;
35444;SDS011;21562;49.476;6.086;2022-09-01T09:33:55;8.27;;;4.50;;
35444;SDS011;21562;49.476;6.086;2022-09-01T09:36:32;5.40;;;4.22;;
35444;SDS011;21562;49.476;6.086;2022-09-01T09:39:10;10.13;;;5.13;;
35444;SDS011;21562;49.476;6.086;2022-09-01T09:41:39;7.22;;;4.30;;
35444;SDS011;21562;49.476;6.086;2022-09-01T09:44:14;11.18;;;4.47;;
35444;SDS011;21562;49.476;6.086;2022-09-01T09:46:47;6.88;;;4.35;;
35444;SDS011;21562;49.476;6.086;2022-09-01T09:49:31;5.78;;;4.70;;
35444;SDS011;21562;49.476;6.086;2022-09-01T09:54:28;6.38;;;4.47;;
35444;SDS011;21562;49.476;6.086;2022-09-01T09:59:43;5.05;;;4.28;;
35444;SDS011;21562;49.476;6.086;2022-09-01T10:02:31;7.85;;;4.63;;
35444;SDS011;21562;49.476;6.086;2022-09-01T10:07:58;7.30;;;5.10;;
35444;SDS011;21562;49.476;6.086;2022-09-01T10:10:27;7.35;;;4.78;;
35444;SDS011;21562;49.476;6.086;2022-09-01T10:13:14;6.55;;;4.07;;
35444;SDS011;21562;49.476;6.086;2022-09-01T10:15:48;6.85;;;4.38;;
35444;SDS011;21562;49.476;6.086;2022-09-01T10:18:17;7.38;;;4.95;;
35444;SDS011;21562;49.476;6.086;2022-09-01T10:20:52;7.78;;;4.68;;
35444;SDS011;21562;49.476;6.086;2022-09-01T10:23:27;6.18;;;4.50;;
35444;SDS011;21562;49.476;6.086;2022-09-01T10:25:55;10.32;;;5.20;;
35444;SDS011;21562;49.476;6.086;2022-09-01T10:29:08;9.68;;;4.80;;
35444;SDS011;21562;49.476;6.086;2022-09-01T10:31:38;6.43;;;4.50;;
35444;SDS011;21562;49.476;6.086;2022-09-01T10:34:05;8.18;;;4.78;;
35444;SDS011;21562;49.476;6.086;2022-09-01T10:36:36;8.18;;;4.85;;
35444;SDS011;21562;49.476;6.086;2022-09-01T10:39:06;7.32;;;4.57;;
35444;SDS011;21562;49.476;6.086;2022-09-01T10:41:55;4.95;;;4.43;;
35444;SDS011;21562;49.476;6.086;2022-09-01T10:46:59;6.45;;;4.40;;
35444;SDS011;21562;49.476;6.086;2022-09-01T10:51:57;6.65;;;4.07;;
35444;SDS011;21562;49.476;6.086;2022-09-01T11:08:21;5.55;;;4.18;;
35444;SDS011;21562;49.476;6.086;2022-09-01T11:13:56;6.68;;;3.95;;
35444;SDS011;21562;49.476;6.086;2022-09-01T11:16:36;6.30;;;4.20;;
35444;SDS011;21562;49.476;6.086;2022-09-01T11:27:07;4.22;;;3.30;;
35444;SDS011;21562;49.476;6.086;2022-09-01T11:29:51;6.20;;;4.63;;
35444;SDS011;21562;49.476;6.086;2022-09-01T11:32:21;8.50;;;4.25;;
35444;SDS011;21562;49.476;6.086;2022-09-01T11:34:51;8.15;;;4.72;;
35444;SDS011;21562;49.476;6.086;2022-09-01T11:37:20;4.05;;;3.03;;
35444;SDS011;21562;49.476;6.086;2022-09-01T11:39:48;5.43;;;4.38;;
35444;SDS011;21562;49.476;6.086;2022-09-01T11:42:25;9.27;;;4.68;;
35444;SDS011;21562;49.476;6.086;2022-09-01T11:47:38;4.45;;;3.47;;
35444;SDS011;21562;49.476;6.086;2022-09-01T11:50:18;6.47;;;3.97;;
35444;SDS011;21562;49.476;6.086;2022-09-01T11:52:59;5.30;;;3.80;;
35444;SDS011;21562;49.476;6.086;2022-09-01T11:55:38;5.40;;;3.42;;
35444;SDS011;21562;49.476;6.086;2022-09-01T11:58:10;4.35;;;3.15;;
35444;SDS011;21562;49.476;6.086;2022-09-01T12:00:43;7.97;;;3.67;;
35444;SDS011;21562;49.476;6.086;2022-09-01T12:03:25;4.85;;;3.65;;
35444;SDS011;21562;49.476;6.086;2022-09-01T12:08:23;6.75;;;3.50;;
35444;SDS011;21562;49.476;6.086;2022-09-01T12:11:01;4.32;;;3.15;;
35444;SDS011;21562;49.476;6.086;2022-09-01T12:13:27;4.10;;;2.67;;
35444;SDS011;21562;49.476;6.086;2022-09-01T12:15:59;5.18;;;3.20;;
35444;SDS011;21562;49.476;6.086;2022-09-01T12:20:58;6.60;;;3.35;;
35444;SDS011;21562;49.476;6.086;2022-09-01T12:25:59;5.07;;;2.63;;
35444;SDS011;21562;49.476;6.086;2022-09-01T12:28:28;5.53;;;2.53;;
35444;SDS011;21562;49.476;6.086;2022-09-01T12:30:55;3.97;;;2.97;;
35444;SDS011;21562;49.476;6.086;2022-09-01T12:33:23;4.25;;;2.75;;
35444;SDS011;21562;49.476;6.086;2022-09-01T12:35:50;3.53;;;2.63;;
35444;SDS011;21562;49.476;6.086;2022-09-01T12:40:45;2.90;;;2.50;;
35444;SDS011;21562;49.476;6.086;2022-09-01T12:43:27;4.60;;;3.33;;
35444;SDS011;21562;49.476;6.086;2022-09-01T12:46:00;3.88;;;2.92;;
35444;SDS011;21562;49.476;6.086;2022-09-01T12:51:18;4.57;;;3.10;;
35444;SDS011;21562;49.476;6.086;2022-09-01T12:54:05;8.55;;;3.05;;
35444;SDS011;21562;49.476;6.086;2022-09-01T12:59:04;5.00;;;2.97;;
35444;SDS011;21562;49.476;6.086;2022-09-01T13:01:33;3.67;;;2.63;;
35444;SDS011;21562;49.476;6.086;2022-09-01T13:06:49;2.90;;;2.50;;
35444;SDS011;21562;49.476;6.086;2022-09-01T13:09:15;2.47;;;2.28;;
35444;SDS011;21562;49.476;6.086;2022-09-01T13:11:41;3.75;;;2.40;;
35444;SDS011;21562;49.476;6.086;2022-09-01T13:14:08;3.53;;;2.38;;
35444;SDS011;21562;49.476;6.086;2022-09-01T13:16:34;2.30;;;2.10;;
35444;SDS011;21562;49.476;6.086;2022-09-01T13:19:01;2.40;;;2.08;;
35444;SDS011;21562;49.476;6.086;2022-09-01T13:21:27;2.63;;;2.22;;
35444;SDS011;21562;49.476;6.086;2022-09-01T13:23:54;3.75;;;2.40;;
35444;SDS011;21562;49.476;6.086;2022-09-01T13:26:20;5.65;;;2.58;;
35444;SDS011;21562;49.476;6.086;2022-09-01T13:28:46;6.00;;;2.45;;
35444;SDS011;21562;49.476;6.086;2022-09-01T13:31:11;2.88;;;2.45;;
35444;SDS011;21562;49.476;6.086;2022-09-01T13:33:37;5.30;;;2.55;;
35444;SDS011;21562;49.476;6.086;2022-09-01T13:36:03;2.58;;;2.10;;
35444;SDS011;21562;49.476;6.086;2022-09-01T13:38:30;4.50;;;2.08;;
35444;SDS011;21562;49.476;6.086;2022-09-01T13:40:56;4.53;;;2.50;;
35444;SDS011;21562;49.476;6.086;2022-09-01T13:43:22;8.23;;;2.53;;
35444;SDS011;21562;49.476;6.086;2022-09-01T13:45:50;4.40;;;2.30;;
35444;SDS011;21562;49.476;6.086;2022-09-01T13:48:16;2.88;;;2.45;;
35444;SDS011;21562;49.476;6.086;2022-09-01T13:50:42;6.07;;;2.75;;
35444;SDS011;21562;49.476;6.086;2022-09-01T13:53:10;4.78;;;2.50;;
35444;SDS011;21562;49.476;6.086;2022-09-01T13:55:39;5.53;;;2.80;;
35444;SDS011;21562;49.476;6.086;2022-09-01T13:58:06;4.72;;;2.38;;
35444;SDS011;21562;49.476;6.086;2022-09-01T14:00:34;4.57;;;2.08;;
35444;SDS011;21562;49.476;6.086;2022-09-01T14:03:04;3.83;;;2.10;;
35444;SDS011;21562;49.476;6.086;2022-09-01T14:05:37;3.03;;;2.17;;
35444;SDS011;21562;49.476;6.086;2022-09-01T14:08:05;4.25;;;2.35;;
35444;SDS011;21562;49.476;6.086;2022-09-01T14:10:32;4.32;;;2.75;;
35444;SDS011;21562;49.476;6.086;2022-09-01T14:13:01;8.32;;;2.60;;
35444;SDS011;21562;49.476;6.086;2022-09-01T14:15:28;3.10;;;2.28;;
35444;SDS011;21562;49.476;6.086;2022-09-01T14:17:54;2.50;;;2.10;;
35444;SDS011;21562;49.476;6.086;2022-09-01T14:20:22;6.90;;;2.47;;
35444;SDS011;21562;49.476;6.086;2022-09-01T14:22:56;5.68;;;2.55;;
35444;SDS011;21562;49.476;6.086;2022-09-01T14:25:22;4.32;;;1.98;;
35444;SDS011;21562;49.476;6.086;2022-09-01T14:27:49;5.00;;;2.20;;
35444;SDS011;21562;49.476;6.086;2022-09-01T14:30:20;5.93;;;2.70;;
35444;SDS011;21562;49.476;6.086;2022-09-01T14:32:50;3.75;;;2.80;;
35444;SDS011;21562;49.476;6.086;2022-09-01T14:35:17;6.50;;;2.67;;
35444;SDS011;21562;49.476;6.086;2022-09-01T14:37:49;4.25;;;2.55;;
35444;SDS011;21562;49.476;6.086;2022-09-01T14:40:15;4.90;;;2.83;;
35444;SDS011;21562;49.476;6.086;2022-09-01T14:42:42;3.55;;;2.53;;
35444;SDS011;21562;49.476;6.086;2022-09-01T14:45:11;4.40;;;2.80;;
35444;SDS011;21562;49.476;6.086;2022-09-01T14:47:39;2.95;;;2.30;;
35444;SDS011;21562;49.476;6.086;2022-09-01T14:50:05;3.75;;;2.70;;
35444;SDS011;21562;49.476;6.086;2022-09-01T14:52:31;3.97;;;2.75;;
35444;SDS011;21562;49.476;6.086;2022-09-01T14:54:58;6.45;;;2.40;;
35444;SDS011;21562;49.476;6.086;2022-09-01T14:57:24;3.70;;;2.95;;
35444;SDS011;21562;49.476;6.086;2022-09-01T14:59:49;3.67;;;2.55;;
35444;SDS011;21562;49.476;6.086;2022-09-01T15:02:15;8.27;;;3.28;;
35444;SDS011;21562;49.476;6.086;2022-09-01T15:04:41;5.72;;;2.65;;
35444;SDS011;21562;49.476;6.086;2022-09-01T15:07:07;5.53;;;2.35;;
35444;SDS011;21562;49.476;6.086;2022-09-01T15:09:33;5.15;;;2.28;;
35444;SDS011;21562;49.476;6.086;2022-09-01T15:11:59;4.95;;;2.70;;
35444;SDS011;21562;49.476;6.086;2022-09-01T15:14:26;4.32;;;2.38;;
35444;SDS011;21562;49.476;6.086;2022-09-01T15:16:52;3.80;;;2.55;;
35444;SDS011;21562;49.476;6.086;2022-09-01T15:19:17;4.10;;;2.40;;
35444;SDS011;21562;49.476;6.086;2022-09-01T15:21:44;7.05;;;3.15;;
35444;SDS011;21562;49.476;6.086;2022-09-01T15:24:11;2.50;;;2.20;;
35444;SDS011;21562;49.476;6.086;2022-09-01T15:26:37;6.97;;;3.35;;
35444;SDS011;21562;49.476;6.086;2022-09-01T15:29:05;6.47;;;3.63;;
35444;SDS011;21562;49.476;6.086;2022-09-01T15:31:33;4.32;;;2.90;;
35444;SDS011;21562;49.476;6.086;2022-09-01T15:34:01;5.47;;;3.03;;
35444;SDS011;21562;49.476;6.086;2022-09-01T15:36:28;4.18;;;2.60;;
35444;SDS011;21562;49.476;6.086;2022-09-01T15:38:55;3.90;;;2.85;;
35444;SDS011;21562;49.476;6.086;2022-09-01T15:41:25;3.00;;;2.45;;
35444;SDS011;21562;49.476;6.086;2022-09-01T15:43:53;2.53;;;2.20;;
35444;SDS011;21562;49.476;6.086;2022-09-01T15:46:19;4.15;;;2.63;;
35444;SDS011;21562;49.476;6.086;2022-09-01T15:48:45;3.17;;;2.33;;
35444;SDS011;21562;49.476;6.086;2022-09-01T15:51:25;3.80;;;2.33;;
35444;SDS011;21562;49.476;6.086;2022-09-01T15:54:03;3.35;;;2.45;;
35444;SDS011;21562;49.476;6.086;2022-09-01T15:56:34;3.67;;;2.55;;
35444;SDS011;21562;49.476;6.086;2022-09-01T15:59:01;4.93;;;2.67;;
35444;SDS011;21562;49.476;6.086;2022-09-01T16:01:30;3.25;;;2.75;;
35444;SDS011;21562;49.476;6.086;2022-09-01T16:03:57;5.18;;;3.25;;
35444;SDS011;21562;49.476;6.086;2022-09-01T16:06:23;6.10;;;2.60;;
35444;SDS011;21562;49.476;6.086;2022-09-01T16:08:50;5.03;;;2.60;;
35444;SDS011;21562;49.476;6.086;2022-09-01T16:11:18;6.47;;;4.22;;
35444;SDS011;21562;49.476;6.086;2022-09-01T16:13:45;7.72;;;2.58;;
35444;SDS011;21562;49.476;6.086;2022-09-01T16:16:12;4.80;;;2.72;;